createdAt,value
2019-05-07T00:02:04.808Z,7.60
2019-05-07T00:04:33.343Z,6.10
2019-05-07T00:07:02.463Z,6.93
2019-05-07T00:09:32.272Z,5.20
2019-05-07T00:12:04.671Z,6.23
2019-05-07T00:14:31.986Z,5.97
2019-05-07T00:17:02.280Z,4.43
2019-05-07T00:19:32.389Z,5.57
2019-05-07T00:22:02.395Z,6.10
2019-05-07T00:24:32.952Z,5.27
2019-05-07T00:27:02.817Z,4.63
2019-05-07T00:29:32.109Z,4.60
2019-05-07T00:32:02.723Z,6.33
2019-05-07T00:34:32.870Z,4.43
2019-05-07T00:37:02.949Z,6.00
2019-05-07T00:39:38.674Z,4.90
2019-05-07T00:42:08.728Z,6.10
2019-05-07T00:44:38.760Z,9.43
2019-05-07T00:47:07.425Z,7.17
2019-05-07T00:49:35.851Z,5.87
2019-05-07T00:52:04.240Z,4.77
2019-05-07T00:54:32.637Z,5.10
2019-05-07T00:57:03.126Z,5.47
2019-05-07T00:59:32.207Z,4.90
2019-05-07T01:02:02.190Z,4.47
2019-05-07T01:04:33.022Z,5.25
2019-05-07T01:07:02.747Z,6.17
2019-05-07T01:09:32.393Z,9.60
2019-05-07T01:12:03.177Z,3.97
2019-05-07T01:14:32.514Z,5.63
2019-05-07T01:17:02.424Z,5.27
2019-05-07T01:19:32.826Z,7.00
2019-05-07T01:22:03.235Z,5.73
2019-05-07T01:24:32.292Z,4.67
2019-05-07T01:27:02.199Z,5.50
2019-05-07T01:29:32.781Z,6.05
2019-05-07T01:32:03.188Z,6.97
2019-05-07T01:34:34.330Z,7.20
2019-05-07T01:37:02.829Z,5.03
2019-05-07T01:39:32.638Z,8.87
2019-05-07T01:42:02.099Z,5.93
2019-05-07T01:44:32.569Z,5.13
2019-05-07T01:47:02.508Z,7.07
2019-05-07T01:49:33.021Z,8.97
2019-05-07T01:52:02.470Z,5.13
2019-05-07T01:54:33.268Z,6.83
2019-05-07T01:57:02.864Z,8.93
2019-05-07T01:59:32.104Z,7.70
2019-05-07T02:02:08.359Z,6.20
2019-05-07T02:04:38.390Z,6.37
2019-05-07T02:07:26.433Z,7.33
2019-05-07T02:09:58.875Z,6.83
2019-05-07T02:12:28.903Z,4.70
2019-05-07T02:14:57.387Z,6.07
2019-05-07T02:17:25.771Z,4.53
2019-05-07T02:19:54.197Z,8.27
2019-05-07T02:22:22.799Z,5.87
2019-05-07T02:24:52.333Z,5.90
2019-05-07T02:27:22.083Z,5.20
2019-05-07T02:29:52.784Z,5.37
2019-05-07T02:32:23.697Z,6.33
2019-05-07T02:34:54.198Z,5.42
2019-05-07T02:37:26.289Z,4.97
2019-05-07T02:40:14.186Z,6.07
2019-05-07T02:42:44.215Z,4.97
2019-05-07T02:45:15.654Z,5.13
2019-05-07T02:47:44.082Z,6.07
2019-05-07T02:50:23.707Z,6.27
2019-05-07T02:52:54.023Z,6.03
2019-05-07T02:55:29.481Z,4.90
2019-05-07T02:57:57.883Z,5.47
2019-05-07T03:00:26.273Z,7.20
2019-05-07T03:02:55.237Z,6.80
2019-05-07T03:43:53.130Z,5.63
2019-05-07T03:46:23.505Z,6.17
2019-05-07T03:48:53.123Z,8.17
2019-05-07T03:51:23.802Z,10.23
2019-05-07T03:53:53.641Z,6.63
2019-05-07T03:56:23.706Z,6.87
2019-05-07T03:58:52.910Z,5.80
2019-05-07T04:01:24.032Z,7.80
2019-05-07T04:03:53.289Z,9.00
2019-05-07T04:06:23.386Z,7.93
2019-05-07T04:08:53.176Z,5.70
2019-05-07T04:11:22.973Z,5.33
2019-05-07T04:13:53.579Z,6.33
2019-05-07T04:16:23.885Z,7.43
2019-05-07T04:18:53.088Z,7.13
2019-05-07T04:21:23.183Z,10.60
2019-05-07T04:23:54.220Z,9.30
2019-05-07T04:26:24.376Z,7.67
2019-05-07T04:29:05.489Z,10.57
2019-05-07T04:31:35.072Z,10.77
2019-05-07T04:34:05.105Z,7.33
2019-05-07T04:36:34.556Z,7.73
2019-05-07T04:39:03.423Z,7.67
2019-05-07T04:41:32.998Z,7.83
2019-05-07T04:44:03.644Z,7.37
2019-05-07T04:46:33.353Z,10.87
2019-05-07T04:49:03.776Z,7.07
2019-05-07T04:51:43.153Z,10.67
2019-05-07T04:54:13.245Z,10.83
2019-05-07T04:56:43.654Z,9.03
2019-05-07T04:59:13.223Z,10.33
2019-05-07T05:01:43.712Z,8.53
2019-05-07T05:04:24.765Z,6.57
2019-05-07T05:06:42.663Z,7.83
2019-05-07T05:09:12.561Z,10.07
2019-05-07T05:11:43.696Z,7.77
2019-05-07T05:14:13.615Z,6.77
2019-05-07T05:16:42.535Z,8.33
2019-05-07T05:19:12.631Z,10.13
2019-05-07T05:21:54.557Z,7.57
2019-05-07T05:24:39.612Z,7.87
2019-05-07T05:27:08.031Z,9.27
2019-05-07T05:29:37.649Z,10.20
2019-05-07T05:32:06.108Z,7.53
2019-05-07T05:34:34.515Z,6.23
2019-05-07T05:37:02.901Z,7.87
2019-05-07T05:39:32.019Z,7.03
2019-05-07T05:42:04.882Z,7.90
2019-05-07T05:44:34.339Z,6.73
2019-05-07T05:47:02.896Z,6.87
2019-05-07T05:49:32.208Z,9.67
2019-05-07T05:52:17.813Z,8.70
2019-05-07T05:54:47.872Z,6.40
2019-05-07T05:57:17.904Z,12.43
2019-05-07T05:59:52.110Z,14.97
2019-05-07T06:02:22.825Z,14.30
2019-05-07T06:04:52.940Z,13.70
2019-05-07T06:07:25.869Z,10.97
2019-05-07T06:10:12.947Z,10.23
2019-05-07T06:12:54.903Z,11.67
2019-05-07T06:15:24.993Z,12.17
2019-05-07T06:17:57.846Z,9.00
2019-05-07T06:20:27.867Z,17.03
2019-05-07T06:23:14.193Z,10.87
2019-05-07T06:25:44.231Z,11.77
2019-05-07T06:28:12.956Z,14.57
2019-05-07T06:30:41.881Z,12.10
2019-05-07T06:33:12.414Z,11.30
2019-05-07T06:35:42.279Z,11.30
2019-05-07T06:38:12.429Z,10.20
2019-05-07T06:40:55.555Z,10.50
2019-05-07T06:43:34.765Z,11.40
2019-05-07T06:46:04.804Z,9.83
2019-05-07T06:48:42.029Z,12.30
2019-05-07T06:51:03.356Z,14.57
2019-05-07T06:53:33.628Z,11.53
2019-05-07T06:56:03.397Z,12.20
2019-05-07T06:58:34.631Z,12.93
2019-05-07T07:01:07.134Z,15.67
2019-05-07T07:03:41.989Z,11.67
2019-05-07T07:06:17.492Z,11.23
2019-05-07T07:08:47.616Z,11.23
2019-05-07T07:11:23.173Z,8.03
2019-05-07T07:13:52.043Z,14.63
2019-05-07T07:16:22.461Z,13.00
2019-05-07T07:18:53.084Z,12.80
2019-05-07T07:21:21.980Z,12.00
2019-05-07T07:23:52.410Z,11.03
2019-05-07T07:26:22.106Z,16.23
2019-05-07T07:28:52.524Z,18.10
2019-05-07T07:31:26.254Z,12.50
2019-05-07T07:33:56.401Z,16.67
2019-05-07T07:36:26.505Z,11.77
2019-05-07T07:38:54.991Z,15.27
2019-05-07T07:41:27.421Z,12.43
2019-05-07T07:43:56.086Z,15.53
2019-05-07T07:46:24.583Z,12.00
2019-05-07T07:49:06.503Z,15.47
2019-05-07T07:51:37.218Z,13.47
2019-05-07T07:53:53.225Z,16.33
2019-05-07T07:56:50.135Z,12.60
2019-05-07T07:59:18.550Z,13.10
2019-05-07T08:01:52.422Z,15.57
2019-05-07T08:04:22.888Z,13.93
2019-05-07T08:07:03.416Z,11.90
2019-05-07T08:09:34.676Z,10.90
2019-05-07T08:12:03.977Z,11.90
2019-05-07T08:14:32.970Z,11.30
2019-05-07T08:17:03.261Z,13.27
2019-05-07T08:19:32.753Z,16.67
2019-05-07T08:22:02.799Z,14.93
2019-05-07T08:24:32.150Z,16.63
2019-05-07T08:27:02.429Z,14.00
2019-05-07T08:29:32.497Z,13.10
2019-05-07T08:32:19.403Z,12.47
2019-05-07T08:34:49.464Z,12.50
2019-05-07T08:37:17.874Z,9.67
2019-05-07T08:39:46.802Z,10.70
2019-05-07T08:42:15.237Z,7.80
2019-05-07T08:44:52.048Z,8.77
2019-05-07T08:47:22.832Z,8.13
2019-05-07T08:49:52.344Z,12.90
2019-05-07T08:52:22.655Z,10.40
2019-05-07T08:54:51.911Z,18.07
2019-05-07T08:57:22.595Z,8.87
2019-05-07T08:59:58.433Z,13.80
2019-05-07T09:02:22.220Z,9.17
2019-05-07T09:04:52.240Z,9.27
2019-05-07T09:07:21.869Z,10.47
2019-05-07T09:09:52.323Z,13.10
2019-05-07T09:12:22.746Z,9.80
2019-05-07T09:14:52.832Z,12.57
2019-05-07T09:17:22.890Z,11.50
2019-05-07T09:19:54.504Z,12.90
2019-05-07T09:22:23.015Z,11.30
2019-05-07T09:24:52.770Z,7.97
2019-05-07T09:27:23.303Z,10.03
2019-05-07T09:29:53.337Z,12.73
2019-05-07T09:32:32.844Z,6.93
2019-05-07T09:35:02.841Z,9.13
2019-05-07T09:37:32.759Z,9.37
2019-05-07T09:40:02.879Z,7.80
2019-05-07T09:42:33.202Z,10.43
2019-05-07T09:45:02.088Z,8.27
2019-05-07T09:47:32.474Z,10.90
2019-05-07T09:50:07.041Z,12.63
2019-05-07T09:52:32.150Z,9.47
2019-05-07T09:55:11.029Z,9.27
2019-05-07T09:57:34.374Z,7.93
2019-05-07T10:00:02.317Z,8.40
2019-05-07T10:02:32.054Z,9.63
2019-05-07T10:05:02.370Z,8.37
2019-05-07T10:07:32.482Z,10.70
2019-05-07T10:10:03.147Z,10.03
2019-05-07T10:12:38.386Z,9.67
2019-05-07T10:15:07.747Z,14.10
2019-05-07T10:17:40.194Z,8.67
2019-05-07T10:20:19.169Z,9.27
2019-05-07T10:22:39.617Z,9.87
2019-05-07T10:25:08.547Z,10.57
2019-05-07T10:27:38.726Z,8.43
2019-05-07T10:30:07.942Z,8.57
2019-05-07T10:32:36.475Z,7.62
2019-05-07T10:35:06.713Z,8.90
2019-05-07T10:37:35.135Z,8.87
2019-05-07T10:40:05.305Z,8.60
2019-05-07T10:42:33.842Z,12.30
2019-05-07T10:45:06.783Z,6.97
2019-05-07T10:47:46.129Z,8.33
2019-05-07T10:50:35.498Z,8.53
2019-05-07T10:52:55.642Z,9.77
2019-05-07T10:55:24.037Z,8.97
2019-05-07T10:57:52.998Z,9.20
2019-05-07T11:00:24.311Z,8.07
2019-05-07T11:02:52.776Z,9.80
2019-05-07T11:05:21.940Z,12.33
2019-05-07T11:07:50.582Z,10.30
2019-05-07T11:10:21.814Z,8.97
2019-05-07T11:12:51.593Z,8.73
2019-05-07T11:15:22.081Z,7.07
2019-05-07T11:18:04.361Z,6.47
2019-05-07T11:20:45.663Z,5.90
2019-05-07T11:23:02.870Z,8.03
2019-05-07T11:25:31.633Z,9.77
2019-05-07T11:28:00.092Z,9.63
2019-05-07T11:30:28.580Z,7.37
2019-05-07T11:32:57.004Z,7.63
2019-05-07T11:35:25.476Z,8.23
2019-05-07T11:37:53.871Z,6.53
2019-05-07T11:40:23.055Z,8.97
2019-05-07T11:43:09.222Z,6.27
2019-05-07T11:45:54.471Z,9.70
2019-05-07T11:48:24.319Z,8.73
2019-05-07T11:51:03.748Z,8.23
2019-05-07T11:53:26.146Z,7.23
2019-05-07T11:55:54.548Z,6.03
2019-05-07T11:58:23.122Z,8.90
2019-05-07T12:00:53.181Z,8.97
2019-05-07T12:03:22.148Z,8.33
2019-05-07T12:05:52.529Z,7.40
2019-05-07T12:08:23.702Z,8.35
2019-05-07T12:10:51.792Z,8.57
2019-05-07T12:13:21.811Z,11.40
2019-05-07T12:15:52.221Z,6.83
2019-05-07T12:18:22.608Z,7.33
2019-05-07T12:20:53.882Z,6.63
2019-05-07T12:23:22.580Z,7.17
2019-05-07T12:25:52.915Z,7.27
2019-05-07T12:28:22.508Z,6.40
2019-05-07T12:30:58.748Z,8.20
2019-05-07T12:33:28.784Z,6.43
2019-05-07T12:35:57.175Z,8.93
2019-05-07T12:38:25.872Z,6.87
2019-05-07T12:40:54.264Z,9.33
2019-05-07T12:43:22.722Z,7.47
2019-05-07T12:45:52.480Z,5.93
2019-05-07T12:48:21.775Z,8.37
2019-05-07T12:50:52.268Z,8.83
2019-05-07T12:53:28.623Z,5.87
2019-05-07T12:56:04.150Z,8.10
2019-05-07T12:58:32.547Z,7.17
2019-05-07T13:01:05.560Z,5.57
2019-05-07T13:03:54.256Z,6.35
2019-05-07T13:06:22.678Z,6.43
2019-05-07T13:08:52.215Z,5.95
2019-05-07T13:11:22.130Z,5.50
2019-05-07T13:13:52.621Z,5.07
2019-05-07T13:16:22.075Z,5.90
2019-05-07T13:18:52.472Z,6.53
2019-05-07T13:21:22.564Z,4.47
2019-05-07T13:23:52.073Z,5.97
2019-05-07T13:26:24.387Z,6.87
2019-05-07T13:28:52.973Z,9.70
2019-05-07T13:31:22.725Z,5.27
2019-05-07T13:33:52.468Z,4.50
2019-05-07T13:36:22.098Z,8.17
2019-05-07T13:38:53.134Z,6.83
2019-05-07T13:41:29.274Z,8.47
2019-05-07T13:44:08.262Z,6.30
2019-05-07T13:46:38.411Z,6.60
2019-05-07T13:49:06.975Z,7.70
2019-05-07T13:51:35.700Z,8.23
2019-05-07T13:54:04.447Z,6.50
2019-05-07T13:56:32.983Z,8.70
2019-05-07T13:59:02.364Z,7.03
2019-05-07T14:01:33.230Z,3.60
2019-05-07T14:04:03.983Z,4.83
2019-05-07T14:06:43.026Z,4.13
2019-05-07T14:09:15.821Z,5.10
2019-05-07T14:11:44.313Z,6.90
2019-05-07T14:14:12.739Z,5.73
2019-05-07T14:16:44.697Z,7.03
2019-05-07T14:19:13.030Z,5.77
2019-05-07T14:21:42.182Z,6.07
2019-05-07T14:24:12.441Z,7.43
2019-05-07T14:26:42.259Z,5.87
2019-05-07T14:29:10.974Z,6.23
2019-05-07T14:31:39.354Z,8.13
2019-05-07T14:34:24.501Z,4.63
2019-05-07T14:36:57.211Z,4.80
2019-05-07T14:39:25.609Z,7.77
2019-05-07T14:41:55.666Z,4.50
2019-05-07T14:44:25.702Z,4.83
2019-05-07T14:46:54.580Z,7.20
2019-05-07T14:49:23.193Z,3.70
2019-05-07T14:51:53.883Z,8.67
2019-05-07T14:54:22.704Z,5.47
2019-05-07T14:56:51.821Z,6.00
2019-05-07T14:59:20.348Z,5.83
2019-05-07T15:01:48.741Z,4.77
2019-05-07T15:04:17.336Z,3.60
2019-05-07T15:06:46.684Z,3.93
2019-05-07T15:09:15.268Z,6.23
2019-05-07T15:11:43.816Z,5.90
2019-05-07T15:14:12.235Z,5.73
2019-05-07T15:16:42.619Z,4.93
2019-05-07T15:19:12.463Z,4.43
2019-05-07T15:21:42.575Z,3.50
2019-05-07T15:24:14.175Z,3.77
2019-05-07T15:26:42.589Z,5.00
2019-05-07T15:29:12.365Z,2.93
2019-05-07T15:31:42.504Z,6.70
2019-05-07T15:34:12.376Z,7.37
2019-05-07T15:36:42.329Z,7.67
2019-05-07T15:39:13.260Z,4.97
2019-05-07T15:41:42.512Z,5.33
2019-05-07T15:44:11.932Z,6.00
2019-05-07T15:46:42.649Z,4.60
2019-05-07T15:49:12.403Z,6.27
2019-05-07T15:51:41.863Z,4.50
2019-05-07T15:54:12.670Z,3.90
2019-05-07T15:56:40.818Z,5.50
2019-05-07T15:59:12.768Z,4.20
2019-05-07T16:01:41.987Z,3.87
2019-05-07T16:04:19.945Z,3.13
2019-05-07T16:06:42.536Z,4.47
2019-05-07T16:09:12.986Z,4.90
2019-05-07T16:11:43.104Z,3.83
2019-05-07T16:14:15.888Z,4.37
2019-05-07T16:16:45.978Z,7.03
2019-05-07T16:19:21.474Z,5.70
2019-05-07T16:21:49.892Z,6.73
2019-05-07T16:24:18.299Z,5.57
2019-05-07T16:26:46.715Z,5.43
2019-05-07T16:29:15.110Z,5.13
2019-05-07T16:31:44.379Z,5.00
2019-05-07T16:34:12.893Z,8.37
2019-05-07T16:36:41.927Z,6.07
2019-05-07T16:39:12.068Z,4.23
2019-05-07T16:41:42.277Z,6.93
2019-05-07T16:44:12.234Z,5.50
2019-05-07T16:46:42.205Z,5.43
2019-05-07T16:49:12.047Z,4.40
2019-05-07T16:51:44.209Z,4.20
2019-05-07T16:54:12.231Z,4.23
2019-05-07T16:56:42.732Z,5.13
2019-05-07T16:59:12.564Z,7.47
2019-05-07T17:01:42.974Z,6.47
2019-05-07T17:04:12.202Z,5.40
2019-05-07T17:06:42.578Z,5.07
2019-05-07T17:09:13.600Z,4.70
2019-05-07T17:11:43.638Z,5.00
2019-05-07T17:14:12.911Z,6.00
2019-05-07T17:16:41.823Z,6.23
2019-05-07T17:19:11.986Z,5.60
2019-05-07T17:21:40.474Z,5.77
2019-05-07T17:24:08.896Z,6.47
2019-05-07T17:26:37.285Z,6.10
2019-05-07T17:29:05.721Z,6.07
2019-05-07T17:31:34.182Z,8.27
2019-05-07T17:34:02.942Z,6.10
2019-05-07T17:36:33.125Z,9.70
2019-05-07T17:39:02.783Z,8.93
2019-05-07T17:41:32.217Z,7.67
2019-05-07T17:44:02.748Z,6.20
2019-05-07T17:46:32.535Z,7.27
2019-05-07T17:49:02.430Z,5.33
2019-05-07T17:51:42.196Z,6.27
2019-05-07T17:54:13.073Z,6.10
2019-05-07T17:56:42.258Z,6.50
2019-05-07T17:59:12.185Z,6.03
2019-05-07T18:01:50.207Z,8.23
2019-05-07T18:04:18.877Z,4.77
2019-05-07T18:06:47.266Z,5.57
2019-05-07T18:09:15.659Z,6.03
2019-05-07T18:11:44.094Z,4.63
2019-05-07T18:14:12.484Z,5.20
2019-05-07T18:16:54.889Z,3.73
2019-05-07T18:19:23.288Z,6.80
2019-05-07T18:21:52.469Z,3.27
2019-05-07T18:24:22.364Z,4.90
2019-05-07T18:26:52.585Z,4.77
2019-05-07T18:29:22.515Z,7.17
2019-05-07T18:31:52.696Z,4.60
2019-05-07T18:34:21.092Z,4.77
2019-05-07T18:36:49.480Z,3.47
2019-05-07T18:39:20.338Z,4.08
2019-05-07T18:41:48.270Z,5.33
2019-05-07T18:44:16.664Z,5.93
2019-05-07T18:46:45.074Z,4.47
2019-05-07T18:49:13.464Z,5.57
2019-05-07T18:51:42.732Z,4.13
2019-05-07T18:54:11.970Z,5.53
2019-05-07T18:56:42.059Z,7.63
2019-05-07T18:59:10.961Z,4.80
2019-05-07T19:01:42.122Z,5.23
2019-05-07T19:04:12.659Z,5.37
2019-05-07T19:06:42.468Z,6.07
2019-05-07T19:09:11.386Z,3.97
2019-05-07T19:11:40.128Z,6.13
2019-05-07T19:14:08.518Z,3.73
2019-05-07T19:16:36.936Z,3.20
2019-05-07T19:19:05.327Z,8.30
2019-05-07T19:21:33.885Z,4.93
2019-05-07T19:24:02.580Z,6.17
2019-05-07T19:26:30.988Z,4.93
2019-05-07T19:28:59.445Z,5.60
2019-05-07T19:31:27.876Z,2.70
2019-05-07T19:33:56.548Z,3.93
2019-05-07T19:36:24.945Z,3.37
2019-05-07T19:38:53.723Z,4.23
2019-05-07T19:41:22.117Z,8.67
2019-05-07T19:43:52.624Z,3.53
2019-05-07T19:46:22.749Z,4.47
2019-05-07T19:48:52.103Z,4.07
2019-05-07T19:51:21.037Z,3.73
2019-05-07T19:53:49.448Z,3.57
2019-05-07T19:56:21.711Z,3.70
2019-05-07T19:58:49.592Z,3.03
2019-05-07T20:01:19.855Z,4.30
2019-05-07T20:03:48.671Z,3.33
2019-05-07T20:06:17.130Z,2.63
2019-05-07T20:08:45.557Z,3.73
2019-05-07T20:11:15.587Z,3.87
2019-05-07T20:13:44.306Z,5.83
2019-05-07T20:16:17.436Z,6.10
2019-05-07T20:18:45.822Z,6.23
2019-05-07T20:21:14.286Z,4.57
2019-05-07T20:23:43.331Z,3.30
2019-05-07T20:26:12.725Z,4.87
2019-05-07T20:28:42.000Z,3.90
2019-05-07T20:31:12.166Z,3.87
2019-05-07T20:33:42.195Z,3.87
2019-05-07T20:36:11.623Z,3.10
2019-05-07T20:38:40.064Z,2.97
2019-05-07T20:41:08.461Z,3.23
2019-05-07T20:43:36.861Z,6.97
2019-05-07T20:46:05.272Z,4.57
2019-05-07T20:48:33.665Z,3.77
2019-05-07T20:51:02.060Z,3.90
2019-05-07T20:53:48.442Z,4.30
2019-05-07T20:56:18.471Z,4.03
2019-05-07T20:58:46.862Z,3.83
2019-05-07T21:01:15.919Z,3.43
2019-05-07T21:03:44.324Z,5.67
2019-05-07T21:06:12.708Z,4.87
2019-05-07T21:08:42.782Z,4.10
2019-05-07T21:11:11.935Z,5.07
2019-05-07T21:13:44.070Z,5.37
2019-05-07T21:16:12.645Z,5.07
2019-05-07T21:18:42.094Z,5.43
2019-05-07T21:21:12.500Z,5.03
2019-05-07T21:23:43.221Z,3.47
2019-05-07T21:26:13.084Z,3.30
2019-05-07T21:28:43.142Z,3.30
2019-05-07T21:31:12.013Z,2.83
2019-05-07T21:33:42.685Z,2.70
2019-05-07T21:36:12.071Z,3.20
2019-05-07T21:38:42.493Z,2.63
2019-05-07T21:41:12.914Z,4.40
2019-05-07T21:43:43.079Z,3.17
2019-05-07T21:46:12.845Z,3.10
2019-05-07T21:48:41.412Z,4.70
2019-05-07T21:51:11.985Z,4.60
2019-05-07T21:53:42.945Z,3.80
2019-05-07T21:56:13.033Z,4.67
2019-05-07T21:58:43.064Z,3.30
2019-05-07T22:01:19.070Z,5.57
2019-05-07T22:03:49.237Z,4.27
2019-05-07T22:06:17.629Z,4.37
2019-05-07T22:08:46.040Z,5.03
2019-05-07T22:11:14.425Z,4.33
2019-05-07T22:13:43.559Z,5.37
2019-05-07T22:16:13.007Z,3.33
2019-05-07T22:18:42.717Z,4.00
2019-05-07T22:21:12.492Z,3.80
2019-05-07T22:23:42.761Z,5.70
2019-05-07T22:26:20.320Z,4.50
2019-05-07T22:28:42.026Z,5.50
2019-05-07T22:31:24.178Z,5.80
2019-05-07T22:34:06.447Z,5.60
2019-05-07T22:36:34.866Z,5.58
2019-05-07T22:39:03.392Z,3.90
2019-05-07T22:41:32.030Z,5.30
2019-05-07T22:44:02.371Z,4.67
2019-05-07T22:46:32.624Z,4.23
2019-05-07T22:49:02.930Z,5.23
2019-05-07T22:51:30.972Z,3.67
2019-05-07T22:53:59.431Z,3.60
2019-05-07T22:56:35.135Z,3.70
2019-05-07T22:58:59.891Z,4.57
2019-05-07T23:01:28.845Z,4.73
2019-05-07T23:03:57.227Z,4.90
2019-05-07T23:06:25.646Z,3.73
2019-05-07T23:08:54.037Z,3.80
2019-05-07T23:11:23.001Z,5.13
2019-05-07T23:13:54.370Z,4.13
2019-05-07T23:16:23.211Z,3.67
2019-05-07T23:18:51.722Z,3.50
2019-05-07T23:21:24.291Z,4.87
2019-05-07T23:23:52.616Z,6.27
2019-05-07T23:26:23.154Z,3.90
2019-05-07T23:28:51.870Z,3.67
2019-05-07T23:31:22.693Z,4.07
2019-05-07T23:33:52.289Z,4.10
2019-05-07T23:36:22.547Z,5.23
2019-05-07T23:38:52.110Z,4.30
2019-05-07T23:41:22.487Z,3.53
2019-05-07T23:44:08.431Z,4.33
2019-05-07T23:46:37.127Z,3.90
2019-05-07T23:49:05.515Z,4.70
2019-05-07T23:51:33.907Z,4.30
2019-05-07T23:54:02.938Z,3.93
2019-05-07T23:56:32.916Z,4.00
2019-05-07T23:59:01.542Z,6.87
